This is the latest recevied weather packets stored in our database for station/object KO6TH-15. If no packets are shown the sender has not sent any weather packets the latest 10 day(s).
| Time | Temp. | Humidity | Pressure | Rain* | Wind** | Luminosity | Snow |
|---|---|---|---|---|---|---|---|
| 1777736060 | 18.89° C | 64% | 0 hPa | 0 mm | - | - | - |
| 1777735460 | 18.33° C | 69% | 0 hPa | 0 mm | - | - | - |
| 1777734860 | 17.22° C | 80% | 0 hPa | 0 mm | - | - | - |
| 1777734260 | 16.11° C | 94% | 0 hPa | 0 mm | - | - | - |
| 1777733660 | 15.56° C | 91% | 0 hPa | 0 mm | - | - | - |
| 1777733060 | 14.44° C | 94% | 0 hPa | 0 mm | - | - | - |
| 1777732430 | 13.89° C | 96% | 0 hPa | 0 mm | - | - | - |
| 1777731800 | 12.78° C | 99% | 0 hPa | 0 mm | - | - | - |
| 1777731170 | 12.78° C | 99% | 0 hPa | 0 mm | - | - | - |
| 1777730540 | 12.22° C | 99% | 0 hPa | 0 mm | - | - | - |
| 1777729940 | 12.22° C | 99% | 0 hPa | 0 mm | - | - | - |
| 1777729340 | 11.67° C | 99% | 0 hPa | 0 mm | - | - | - |
| 1777728740 | 11.67° C | 99% | 0 hPa | 0 mm | - | - | - |
| 1777728110 | 12.22° C | 98% | 0 hPa | 0 mm | - | - | - |
| 1777727510 | 12.22° C | 98% | 0 hPa | 0 mm | - | - | - |
| 1777726880 | 12.22° C | 97% | 0 hPa | 0 mm | - | - | - |
| 1777726250 | 12.78° C | 93% | 0 hPa | 0 mm | - | - | - |
| 1777725650 | 12.78° C | 93% | 0 hPa | 0 mm | - | - | - |
| 1777725020 | 12.22° C | 95% | 0 hPa | 0 mm | - | - | - |
| 1777724390 | 11.67° C | 99% | 0 hPa | 0 mm | - | - | - |
| 1777723790 | 11.67° C | 99% | 0 hPa | 0 mm | - | - | - |
| 1777723190 | 11.67° C | 99% | 0 hPa | 0 mm | - | - | - |
| 1777722560 | 11.67° C | 99% | 0 hPa | 0 mm | - | - | - |
| 1777721930 | 11.67° C | 99% | 0 hPa | 0 mm | - | - | - |
| 1777721330 | 12.22° C | 99% | 0 hPa | 0 mm | - | - | - |
* Rain latest hour (hover to see other rain measurements)
** Current wind speed in m/s (hover to see current wind gust speed)